This is the latest recevied weather packets stored in our database for station/object LTAC. If no packets are shown the sender has not sent any weather packets the latest 10 day(s).
| Time | Temp. | Humidity | Pressure | Rain* | Wind** | Luminosity | Snow |
|---|---|---|---|---|---|---|---|
| 1778013004 | 7.78° C | 81% | 1014 hPa | - | - | - | - |
| 1778010304 | 8.89° C | 76% | 1014 hPa | - | - | - | - |
| 1778009405 | 8.89° C | 76% | 1014 hPa | - | - | - | - |
| 1778006704 | 8.89° C | 76% | 1013 hPa | - | - | - | - |
| 1778005804 | 8.89° C | 76% | 1013 hPa | - | - | - | - |
| 1778004904 | 10° C | 71% | 1013 hPa | - | - | - | - |
| 1778002204 | 11.11° C | 66% | 1013 hPa | - | - | - | - |
| 1778001304 | 11.11° C | 66% | 1013 hPa | - | - | - | - |
| 1777999504 | 11.11° C | 71% | 1013 hPa | - | - | - | - |
| 1777995904 | 12.22° C | 58% | 1013 hPa | - | - | - | - |
| 1777995004 | 12.22° C | 58% | 1013 hPa | - | - | - | - |
| 1777994105 | 12.22° C | 58% | 1012 hPa | - | - | - | - |
| 1777993205 | 12.22° C | 58% | 1012 hPa | - | - | - | - |
| 1777992304 | 12.22° C | 58% | 1012 hPa | - | - | - | - |
| 1777988704 | 12.78° C | 58% | 1012 hPa | - | - | - | - |
| 1777986904 | 12.78° C | 54% | 1012 hPa | - | - | - | - |
| 1777986004 | 12.78° C | 54% | 1012 hPa | - | - | - | - |
| 1777985105 | 12.22° C | 58% | 1012 hPa | - | - | - | - |
| 1777984205 | 12.22° C | 58% | 1012 hPa | - | - | - | - |
| 1777982405 | 12.22° C | 62% | 1012 hPa | - | - | - | - |
| 1777981503 | 12.22° C | 58% | 1012 hPa | - | - | - | - |
| 1777980604 | 12.22° C | 58% | 1012 hPa | - | - | - | - |
| 1777978804 | 12.22° C | 58% | 1012 hPa | - | - | - | - |
| 1777977904 | 11.11° C | 62% | 1012 hPa | - | - | - | - |
| 1777975205 | 11.11° C | 62% | 1012 hPa | - | - | - | - |
* Rain since midnight (hover to see other rain measurements)
** Current wind speed in m/s (hover to see current wind gust speed)